createdAt,value
2018-06-22T00:01:52.275Z,11.42
2018-06-22T00:04:19.930Z,11.33
2018-06-22T00:06:47.598Z,11.38
2018-06-22T00:09:15.263Z,11.38
2018-06-22T00:11:42.959Z,11.38
2018-06-22T00:14:10.620Z,11.37
2018-06-22T00:16:38.340Z,11.31
2018-06-22T00:19:05.982Z,11.27
2018-06-22T00:21:33.682Z,11.15
2018-06-22T00:24:01.342Z,11.09
2018-06-22T00:26:28.983Z,10.98
2018-06-22T00:28:56.690Z,11.00
2018-06-22T00:31:24.302Z,10.92
2018-06-22T00:33:51.961Z,11.02
2018-06-22T00:36:19.607Z,10.95
2018-06-22T00:38:47.265Z,10.86
2018-06-22T00:41:14.958Z,10.92
2018-06-22T00:43:42.606Z,10.90
2018-06-22T00:46:10.270Z,10.87
2018-06-22T00:48:37.952Z,10.88
2018-06-22T00:51:05.643Z,10.83
2018-06-22T00:53:38.812Z,10.78
2018-06-22T00:56:06.440Z,10.71
2018-06-22T00:58:34.091Z,10.68
2018-06-22T01:01:01.767Z,10.71
2018-06-22T01:03:29.423Z,10.76
2018-06-22T01:05:57.106Z,10.73
2018-06-22T01:08:24.798Z,10.61
2018-06-22T01:10:52.499Z,10.52
2018-06-22T01:13:20.179Z,10.44
2018-06-22T01:15:47.839Z,10.44
2018-06-22T01:18:15.533Z,10.39
2018-06-22T01:20:43.183Z,10.31
2018-06-22T01:23:10.846Z,10.45
2018-06-22T01:25:38.503Z,10.35
2018-06-22T01:28:06.657Z,10.38
2018-06-22T01:30:34.307Z,10.28
2018-06-22T01:33:01.947Z,10.22
2018-06-22T01:35:29.633Z,10.16
2018-06-22T01:37:57.335Z,10.18
2018-06-22T01:40:25.030Z,10.15
2018-06-22T01:42:52.703Z,10.23
2018-06-22T01:45:20.595Z,10.28
2018-06-22T01:47:48.299Z,10.28
2018-06-22T01:50:15.983Z,10.23
2018-06-22T01:52:43.659Z,10.26
2018-06-22T01:55:11.309Z,10.27
2018-06-22T01:57:39.216Z,10.06
2018-06-22T02:00:06.907Z,10.10
2018-06-22T02:02:34.605Z,10.10
2018-06-22T02:05:02.299Z,10.07
2018-06-22T02:07:29.993Z,10.06
2018-06-22T02:09:57.691Z,9.98
2018-06-22T02:12:25.394Z,9.97
2018-06-22T02:14:53.126Z,9.87
2018-06-22T02:17:20.838Z,9.96
2018-06-22T02:19:48.558Z,9.75
2018-06-22T02:22:16.233Z,9.67
2018-06-22T02:24:43.908Z,9.60
2018-06-22T02:27:11.572Z,9.59
2018-06-22T02:29:39.252Z,9.55
2018-06-22T02:32:06.959Z,9.53
2018-06-22T02:34:34.640Z,9.49
2018-06-22T02:37:02.320Z,9.42
2018-06-22T02:39:29.994Z,9.34
2018-06-22T02:41:57.689Z,9.36
2018-06-22T02:44:25.389Z,9.32
2018-06-22T02:46:53.069Z,9.33
2018-06-22T02:49:20.746Z,9.37
2018-06-22T02:51:48.426Z,9.38
2018-06-22T02:54:16.078Z,9.41
2018-06-22T02:56:43.751Z,9.27
2018-06-22T02:59:11.405Z,9.23
2018-06-22T03:01:39.050Z,9.24
2018-06-22T03:04:06.742Z,9.15
2018-06-22T03:06:34.439Z,9.12
2018-06-22T03:09:02.178Z,9.04
2018-06-22T03:11:29.943Z,9.01
2018-06-22T03:13:57.611Z,9.02
2018-06-22T03:16:25.280Z,9.10
2018-06-22T03:18:53.017Z,9.17
2018-06-22T03:21:20.706Z,9.08
2018-06-22T03:23:48.427Z,9.17
2018-06-22T03:26:16.078Z,9.05
2018-06-22T03:28:44.016Z,8.93
2018-06-22T03:31:11.670Z,8.86
2018-06-22T03:33:39.357Z,8.94
2018-06-22T03:36:07.073Z,8.92
2018-06-22T03:38:34.752Z,8.93
2018-06-22T03:41:02.508Z,8.94
2018-06-22T03:43:30.171Z,9.04
2018-06-22T03:45:57.842Z,8.97
2018-06-22T03:48:25.491Z,8.97
2018-06-22T03:50:53.200Z,9.07
2018-06-22T03:53:20.894Z,9.11
2018-06-22T03:55:48.595Z,9.17
2018-06-22T03:58:16.283Z,9.36
2018-06-22T04:00:44.055Z,9.45
2018-06-22T04:03:11.759Z,9.51
2018-06-22T04:05:39.431Z,9.41
2018-06-22T04:08:07.184Z,9.41
2018-06-22T04:10:34.872Z,9.45
2018-06-22T04:13:02.551Z,9.52
2018-06-22T04:15:30.227Z,9.62
2018-06-22T04:17:57.962Z,9.72
2018-06-22T04:20:26.340Z,9.85
2018-06-22T04:22:54.281Z,9.93
2018-06-22T04:25:22.989Z,9.97
2018-06-22T04:27:51.281Z,10.23
2018-06-22T04:30:19.061Z,10.27
2018-06-22T04:32:47.698Z,10.17
2018-06-22T04:35:15.676Z,10.37
2018-06-22T04:37:43.347Z,10.43
2018-06-22T04:40:11.281Z,10.57
2018-06-22T04:42:38.971Z,10.74
2018-06-22T04:45:06.702Z,10.92
2018-06-22T04:47:34.567Z,11.10
2018-06-22T04:50:02.494Z,11.22
2018-06-22T04:52:30.175Z,11.33
2018-06-22T04:54:57.911Z,11.49
2018-06-22T04:57:25.614Z,11.61
2018-06-22T04:59:53.261Z,11.23
2018-06-22T05:02:21.003Z,11.24
2018-06-22T05:04:48.753Z,11.18
2018-06-22T05:07:16.473Z,11.27
2018-06-22T05:09:44.228Z,11.46
2018-06-22T05:12:11.955Z,11.63
2018-06-22T05:14:39.602Z,11.86
2018-06-22T05:17:07.392Z,11.82
2018-06-22T05:19:35.070Z,11.72
2018-06-22T05:22:02.824Z,11.69
2018-06-22T05:24:30.507Z,11.72
2018-06-22T05:26:58.298Z,11.84
2018-06-22T05:29:25.975Z,11.85
2018-06-22T05:31:53.659Z,11.92
2018-06-22T05:34:21.322Z,12.06
2018-06-22T05:36:48.991Z,12.29
2018-06-22T05:39:16.670Z,12.57
2018-06-22T05:41:44.363Z,12.48
2018-06-22T05:44:12.084Z,12.59
2018-06-22T05:46:39.759Z,12.79
2018-06-22T05:49:07.482Z,13.06
2018-06-22T05:51:35.203Z,13.11
2018-06-22T05:54:02.863Z,13.52
2018-06-22T05:56:30.629Z,14.00
2018-06-22T05:58:58.249Z,14.36
2018-06-22T06:01:25.918Z,14.77
2018-06-22T06:03:53.650Z,15.04
2018-06-22T06:06:21.337Z,14.86
2018-06-22T06:08:49.016Z,14.69
2018-06-22T06:11:16.752Z,14.74
2018-06-22T06:13:44.408Z,14.75
2018-06-22T06:16:12.107Z,14.93
2018-06-22T06:18:39.772Z,15.03
2018-06-22T06:21:07.526Z,15.46
2018-06-22T06:23:35.196Z,15.50
2018-06-22T06:26:02.939Z,15.50
2018-06-22T06:28:30.597Z,15.53
2018-06-22T06:30:58.491Z,15.56
2018-06-22T06:33:26.239Z,15.93
2018-06-22T06:35:53.970Z,15.52
2018-06-22T06:38:21.611Z,16.19
2018-06-22T06:40:49.415Z,16.47
2018-06-22T06:43:17.114Z,16.56
2018-06-22T06:45:44.802Z,16.88
2018-06-22T06:48:12.468Z,17.12
2018-06-22T06:50:40.128Z,17.41
2018-06-22T06:53:07.840Z,17.49
2018-06-22T06:55:35.553Z,17.41
2018-06-22T06:58:03.439Z,18.02
2018-06-22T07:00:31.081Z,18.75
2018-06-22T07:02:58.803Z,19.09
2018-06-22T07:05:26.486Z,19.18
2018-06-22T07:07:54.448Z,19.18
2018-06-22T07:10:22.130Z,19.21
2018-06-22T07:12:49.845Z,19.59
2018-06-22T07:15:17.570Z,20.13
2018-06-22T07:17:45.262Z,20.35
2018-06-22T07:20:12.938Z,20.67
2018-06-22T07:22:40.660Z,20.76
2018-06-22T07:25:08.367Z,20.98
2018-06-22T07:27:36.059Z,21.33
2018-06-22T07:30:03.950Z,21.62
2018-06-22T07:32:31.610Z,21.53
2018-06-22T07:34:59.290Z,21.90
2018-06-22T07:37:27.013Z,21.47
2018-06-22T07:39:54.698Z,21.92
2018-06-22T07:42:22.375Z,22.56
2018-06-22T07:44:50.047Z,22.92
2018-06-22T07:47:17.695Z,23.68
2018-06-22T07:49:45.461Z,23.52
2018-06-22T07:52:13.088Z,23.36
2018-06-22T07:54:40.778Z,23.53
2018-06-22T07:57:08.471Z,23.95
2018-06-22T07:59:36.137Z,24.07
2018-06-22T08:02:03.842Z,24.07
2018-06-22T08:04:31.518Z,24.51
2018-06-22T08:06:59.209Z,24.43
2018-06-22T08:09:26.902Z,24.43
2018-06-22T08:11:54.555Z,25.39
2018-06-22T08:14:22.248Z,25.77
2018-06-22T08:16:49.979Z,26.08
2018-06-22T08:19:17.683Z,26.20
2018-06-22T08:21:45.394Z,25.75
2018-06-22T08:24:13.082Z,25.96
2018-06-22T08:26:40.772Z,25.89
2018-06-22T08:29:08.462Z,25.58
2018-06-22T08:31:36.523Z,25.56
2018-06-22T08:34:04.270Z,25.46
2018-06-22T08:36:32.011Z,25.88
2018-06-22T08:38:59.694Z,25.73
2018-06-22T08:41:27.492Z,26.01
2018-06-22T08:43:55.195Z,26.26
2018-06-22T08:46:22.889Z,26.73
2018-06-22T08:48:50.611Z,27.41
2018-06-22T08:51:18.346Z,27.36
2018-06-22T08:53:46.044Z,27.12
2018-06-22T08:56:13.707Z,25.94
2018-06-22T08:58:41.382Z,26.36
2018-06-22T09:01:09.037Z,26.65
2018-06-22T09:03:36.794Z,26.73
2018-06-22T09:06:04.458Z,26.88
2018-06-22T09:08:32.180Z,26.09
2018-06-22T09:10:59.864Z,25.84
2018-06-22T09:13:27.690Z,25.92
2018-06-22T09:15:55.346Z,26.38
2018-06-22T09:18:23.005Z,25.76
2018-06-22T09:20:50.965Z,25.45
2018-06-22T09:23:18.624Z,26.12
2018-06-22T09:25:46.331Z,26.35
2018-06-22T09:28:14.031Z,27.33
2018-06-22T09:30:41.759Z,26.80
2018-06-22T09:33:09.430Z,26.70
2018-06-22T09:35:37.126Z,26.58
2018-06-22T09:38:05.400Z,27.26
2018-06-22T09:40:33.108Z,28.04
2018-06-22T09:43:00.840Z,27.54
2018-06-22T09:45:28.804Z,27.29
2018-06-22T09:47:56.524Z,26.81
2018-06-22T09:50:24.254Z,26.92
2018-06-22T09:52:51.966Z,27.13
2018-06-22T09:55:19.660Z,27.86
2018-06-22T09:57:47.375Z,27.86
2018-06-22T10:00:17.425Z,27.91
2018-06-22T10:02:45.390Z,27.58
2018-06-22T10:05:13.069Z,28.07
2018-06-22T10:07:40.816Z,28.04
2018-06-22T10:10:08.511Z,27.44
2018-06-22T10:12:36.206Z,27.70
2018-06-22T10:15:03.913Z,28.72
2018-06-22T10:17:31.633Z,28.34
2018-06-22T10:19:59.320Z,27.44
2018-06-22T10:22:26.996Z,27.39
2018-06-22T10:24:54.677Z,26.33
2018-06-22T10:27:22.386Z,25.40
2018-06-22T10:29:50.058Z,24.75
2018-06-22T10:32:17.752Z,24.71
2018-06-22T10:34:45.438Z,25.82
2018-06-22T10:37:13.136Z,26.47
2018-06-22T10:39:40.910Z,26.21
2018-06-22T10:42:08.646Z,25.47
2018-06-22T10:44:36.353Z,25.61
2018-06-22T10:47:04.554Z,25.71
2018-06-22T10:49:32.257Z,25.43
2018-06-22T10:51:59.990Z,24.85
2018-06-22T10:54:27.716Z,24.52
2018-06-22T10:56:55.406Z,24.20
2018-06-22T10:59:23.110Z,24.15
2018-06-22T11:01:50.804Z,23.79
2018-06-22T11:04:18.553Z,23.83
2018-06-22T11:06:46.298Z,23.99
2018-06-22T11:09:13.961Z,23.35
2018-06-22T11:11:41.686Z,23.40
2018-06-22T11:14:09.374Z,22.80
2018-06-22T11:16:37.213Z,22.63
2018-06-22T11:19:05.145Z,22.22
2018-06-22T11:21:33.232Z,22.68
2018-06-22T11:24:00.934Z,22.40
2018-06-22T11:26:28.890Z,21.78
2018-06-22T11:28:56.585Z,22.08
2018-06-22T11:31:24.272Z,22.17
2018-06-22T11:33:51.941Z,22.62
2018-06-22T11:36:19.701Z,23.31
2018-06-22T11:38:47.383Z,22.92
2018-06-22T11:41:15.111Z,22.88
2018-06-22T11:43:42.772Z,23.05
2018-06-22T11:46:10.436Z,22.88
2018-06-22T11:48:38.129Z,22.65
2018-06-22T11:51:05.929Z,22.32
2018-06-22T11:53:33.563Z,22.48
2018-06-22T11:56:01.282Z,22.42
2018-06-22T11:58:29.007Z,22.52
2018-06-22T12:00:56.746Z,22.36
2018-06-22T12:03:24.446Z,22.28
2018-06-22T12:05:52.163Z,22.27
2018-06-22T12:08:19.882Z,22.05
2018-06-22T12:10:47.614Z,21.97
2018-06-22T12:13:15.319Z,21.73
2018-06-22T12:15:43.066Z,22.05
2018-06-22T12:18:10.769Z,22.37
2018-06-22T12:20:38.510Z,22.46
2018-06-22T12:23:06.189Z,22.15
2018-06-22T12:25:33.917Z,21.79
2018-06-22T12:28:01.639Z,21.69
2018-06-22T12:30:29.359Z,21.65
2018-06-22T12:32:57.098Z,22.01
2018-06-22T12:35:24.831Z,22.16
2018-06-22T12:37:52.516Z,21.72
2018-06-22T12:40:20.250Z,21.70
2018-06-22T12:42:47.964Z,21.44
2018-06-22T12:45:15.809Z,20.97
2018-06-22T12:47:43.418Z,21.15
2018-06-22T12:50:11.125Z,20.59
2018-06-22T12:52:38.842Z,20.09
2018-06-22T12:55:06.628Z,20.07
2018-06-22T12:57:34.398Z,19.97
2018-06-22T13:00:02.127Z,19.72
2018-06-22T13:02:29.867Z,19.93
2018-06-22T13:04:57.588Z,19.77
2018-06-22T13:07:25.292Z,20.06
2018-06-22T13:09:52.994Z,19.87
2018-06-22T13:12:20.727Z,19.73
2018-06-22T13:14:48.430Z,19.89
2018-06-22T13:17:16.159Z,20.11
2018-06-22T13:19:43.877Z,20.23
2018-06-22T13:22:11.547Z,20.03
2018-06-22T13:24:39.207Z,20.22
2018-06-22T13:27:06.927Z,19.78
2018-06-22T13:29:34.622Z,19.44
2018-06-22T13:32:02.334Z,19.62
2018-06-22T13:34:30.024Z,19.33
2018-06-22T13:36:57.991Z,19.00
2018-06-22T13:39:25.676Z,18.97
2018-06-22T13:41:53.373Z,19.06
2018-06-22T13:44:21.110Z,19.32
2018-06-22T13:46:48.819Z,19.20
2018-06-22T13:49:16.553Z,19.26
2018-06-22T13:51:44.575Z,19.35
2018-06-22T13:54:12.250Z,19.43
2018-06-22T13:56:39.948Z,19.63
2018-06-22T13:59:07.667Z,19.66
2018-06-22T14:01:35.734Z,19.48
2018-06-22T14:04:09.028Z,19.56
2018-06-22T14:06:42.222Z,19.57
2018-06-22T14:09:11.943Z,19.52
2018-06-22T14:11:40.221Z,19.36
2018-06-22T14:14:07.952Z,19.25
2018-06-22T14:16:35.626Z,19.10
2018-06-22T14:19:03.310Z,19.16
2018-06-22T14:21:31.123Z,19.21
2018-06-22T14:23:58.891Z,19.15
2018-06-22T14:26:26.596Z,18.76
2018-06-22T14:28:54.366Z,18.71
2018-06-22T14:31:22.048Z,18.82
2018-06-22T14:33:49.787Z,18.87
2018-06-22T14:36:17.541Z,19.14
2018-06-22T14:38:46.098Z,19.25
2018-06-22T14:41:13.758Z,19.26
2018-06-22T14:43:41.487Z,19.23
2018-06-22T14:46:09.196Z,18.91
2018-06-22T14:48:36.935Z,18.73
2018-06-22T14:51:04.651Z,18.64
2018-06-22T14:53:37.991Z,18.56
2018-06-22T14:56:11.413Z,18.52
2018-06-22T14:58:44.787Z,18.89
2018-06-22T15:01:18.031Z,18.67
2018-06-22T15:03:51.259Z,18.78
2018-06-22T15:06:24.719Z,18.44
2018-06-22T15:08:52.416Z,17.94
2018-06-22T15:11:20.114Z,17.98
2018-06-22T15:13:48.875Z,18.05
2018-06-22T15:16:16.598Z,17.99
2018-06-22T15:18:44.516Z,17.99
2018-06-22T15:21:12.230Z,18.17
2018-06-22T15:23:39.914Z,18.40
2018-06-22T15:26:07.630Z,18.40
2018-06-22T15:28:35.397Z,18.49
2018-06-22T15:31:03.099Z,18.58
2018-06-22T15:33:36.394Z,18.61
2018-06-22T15:36:09.700Z,18.53
2018-06-22T15:38:43.130Z,18.38
2018-06-22T15:41:16.383Z,18.18
2018-06-22T15:43:50.272Z,17.91
2018-06-22T15:46:23.482Z,17.88
2018-06-22T15:48:57.013Z,18.03
2018-06-22T15:51:30.303Z,18.20
2018-06-22T15:54:03.496Z,18.22
2018-06-22T15:56:31.329Z,18.03
2018-06-22T15:58:59.063Z,17.80
2018-06-22T16:01:27.120Z,17.71
2018-06-22T16:03:56.007Z,17.91
2018-06-22T16:06:24.038Z,18.02
2018-06-22T16:08:51.776Z,18.23
2018-06-22T16:11:19.684Z,18.27
2018-06-22T16:13:53.094Z,18.23
2018-06-22T16:16:26.380Z,18.00
2018-06-22T16:18:59.633Z,17.98
2018-06-22T16:21:32.935Z,17.89
2018-06-22T16:24:06.151Z,17.62
2018-06-22T16:26:39.410Z,17.66
2018-06-22T16:29:07.156Z,17.75
2018-06-22T16:31:34.927Z,17.67
2018-06-22T16:34:02.647Z,17.68
2018-06-22T16:36:30.327Z,17.63
2018-06-22T16:38:58.237Z,17.49
2018-06-22T16:41:25.945Z,17.37
2018-06-22T16:43:53.718Z,17.36
2018-06-22T16:46:21.678Z,17.23
2018-06-22T16:48:49.422Z,17.20
2018-06-22T16:51:17.391Z,17.24
2018-06-22T16:53:45.087Z,17.24
2018-06-22T16:56:12.802Z,17.34
2018-06-22T16:58:40.990Z,17.33
2018-06-22T17:01:10.014Z,17.27
2018-06-22T17:03:37.772Z,17.34
2018-06-22T17:06:05.912Z,17.35
2018-06-22T17:08:39.330Z,17.22
2018-06-22T17:11:12.682Z,17.25
2018-06-22T17:13:45.922Z,17.19
2018-06-22T17:16:19.415Z,17.29
2018-06-22T17:18:50.297Z,17.26
2018-06-22T17:21:18.299Z,17.27
2018-06-22T17:23:46.039Z,17.34
2018-06-22T17:26:13.918Z,17.20
2018-06-22T17:28:41.629Z,17.33
2018-06-22T17:31:09.335Z,17.23
2018-06-22T17:33:37.454Z,17.22
2018-06-22T17:36:05.276Z,17.26
2018-06-22T17:38:33.173Z,17.19
2018-06-22T17:41:00.894Z,17.24
2018-06-22T17:43:28.677Z,17.14
2018-06-22T17:45:56.709Z,17.14
2018-06-22T17:48:24.350Z,16.96
2018-06-22T17:50:52.125Z,16.90
2018-06-22T17:53:19.819Z,16.83
2018-06-22T17:55:47.564Z,16.79
2018-06-22T17:58:15.335Z,16.91
2018-06-22T18:00:48.734Z,16.88
2018-06-22T18:03:21.966Z,16.85
2018-06-22T18:05:55.374Z,16.89
2018-06-22T18:08:28.779Z,16.94
2018-06-22T18:11:02.090Z,16.99
2018-06-22T18:13:29.836Z,16.72
2018-06-22T18:15:57.595Z,16.68
2018-06-22T18:18:25.278Z,16.68
2018-06-22T18:20:52.989Z,16.60
2018-06-22T18:23:20.727Z,16.53
2018-06-22T18:25:48.483Z,16.66
2018-06-22T18:28:16.174Z,16.68
2018-06-22T18:30:43.898Z,16.56
2018-06-22T18:33:11.660Z,16.53
2018-06-22T18:35:39.345Z,16.55
2018-06-22T18:38:07.103Z,16.41
2018-06-22T18:40:34.855Z,16.29
2018-06-22T18:43:02.634Z,16.27
2018-06-22T18:45:30.375Z,16.21
2018-06-22T18:47:58.046Z,16.15
2018-06-22T18:50:25.919Z,16.01
2018-06-22T18:52:59.218Z,15.94
2018-06-22T18:55:32.639Z,15.89
2018-06-22T18:58:05.863Z,15.89
2018-06-22T19:00:39.059Z,15.92
2018-06-22T19:04:10.008Z,15.75
2018-06-22T19:06:37.735Z,15.65
2018-06-22T19:09:06.209Z,15.60
2018-06-22T19:11:33.969Z,15.59
2018-06-22T19:14:01.662Z,15.68
2018-06-22T19:16:29.411Z,15.66
2018-06-22T19:18:57.170Z,15.53
2018-06-22T19:21:24.859Z,15.44
2018-06-22T19:23:52.534Z,15.44
2018-06-22T19:26:20.260Z,15.46
2018-06-22T19:28:47.960Z,15.46
2018-06-22T19:31:15.664Z,15.50
2018-06-22T19:33:43.358Z,15.49
2018-06-22T19:36:11.055Z,15.55
2018-06-22T19:38:38.715Z,15.34
2018-06-22T19:41:06.675Z,15.41
2018-06-22T19:43:39.913Z,15.47
2018-06-22T19:46:13.344Z,15.24
2018-06-22T19:48:46.652Z,15.13
2018-06-22T19:51:19.938Z,15.03
2018-06-22T19:54:07.566Z,14.99
2018-06-22T19:56:35.393Z,14.98
2018-06-22T19:59:03.130Z,14.89
2018-06-22T20:01:30.934Z,14.90
2018-06-22T20:03:58.757Z,14.89
2018-06-22T20:06:26.678Z,14.77
2018-06-22T20:08:54.398Z,14.61
2018-06-22T20:11:22.074Z,14.62
2018-06-22T20:13:49.836Z,14.49
2018-06-22T20:16:17.687Z,14.47
2018-06-22T20:18:45.343Z,14.33
2018-06-22T20:21:13.044Z,14.29
2018-06-22T20:23:40.923Z,14.24
2018-06-22T20:26:08.695Z,14.23
2018-06-22T20:28:36.453Z,14.17
2018-06-22T20:31:04.187Z,14.06
2018-06-22T20:33:31.894Z,13.99
2018-06-22T20:36:05.395Z,13.89
2018-06-22T20:38:38.797Z,13.80
2018-06-22T20:41:12.755Z,13.89
2018-06-22T20:43:46.218Z,13.81
2018-06-22T20:46:18.585Z,13.72
2018-06-22T20:48:51.931Z,13.80
2018-06-22T20:51:19.667Z,13.66
2018-06-22T20:53:47.343Z,13.43
2018-06-22T20:56:15.050Z,13.44
2018-06-22T20:58:42.712Z,13.36
2018-06-22T21:01:10.379Z,13.32
2018-06-22T21:03:38.141Z,13.23
2018-06-22T21:06:07.075Z,13.06
2018-06-22T21:08:34.795Z,13.03
2018-06-22T21:11:02.495Z,13.10
2018-06-22T21:13:30.284Z,13.03
2018-06-22T21:15:58.067Z,12.99
2018-06-22T21:18:25.758Z,13.02
2018-06-22T21:20:59.065Z,13.01
2018-06-22T21:23:26.750Z,12.89
2018-06-22T21:25:54.467Z,12.86
2018-06-22T21:28:27.902Z,13.08
2018-06-22T21:31:01.204Z,12.83
2018-06-22T21:33:34.515Z,12.68
2018-06-22T21:36:07.771Z,12.45
2018-06-22T21:39:08.718Z,12.44
2018-06-22T21:41:36.421Z,12.34
2018-06-22T21:44:04.207Z,12.31
2018-06-22T21:46:31.955Z,12.31
2018-06-22T21:48:59.747Z,12.29
2018-06-22T21:51:27.462Z,12.28
2018-06-22T21:53:55.136Z,12.36
2018-06-22T21:56:23.227Z,12.27
2018-06-22T21:58:50.943Z,12.29
2018-06-22T22:01:18.723Z,12.27
2018-06-22T22:03:46.412Z,12.28
2018-06-22T22:06:14.135Z,12.05
2018-06-22T22:08:41.830Z,11.98
2018-06-22T22:11:10.269Z,11.79
2018-06-22T22:13:39.054Z,11.74
2018-06-22T22:16:07.587Z,11.56
2018-06-22T22:18:35.305Z,11.61
2018-06-22T22:21:03.014Z,11.80
2018-06-22T22:23:30.758Z,11.50
2018-06-22T22:25:58.497Z,11.42
2018-06-22T22:28:26.167Z,11.33
2018-06-22T22:30:53.846Z,11.45
2018-06-22T22:33:21.516Z,11.32
2018-06-22T22:35:49.235Z,11.18
2018-06-22T22:38:16.878Z,11.30
2018-06-22T22:40:44.593Z,11.43
2018-06-22T22:43:12.266Z,11.16
2018-06-22T22:45:40.189Z,11.16
2018-06-22T22:48:07.887Z,11.04
2018-06-22T22:50:35.580Z,11.01
2018-06-22T22:53:03.304Z,10.97
2018-06-22T22:55:30.965Z,10.98
2018-06-22T22:57:58.646Z,11.08
2018-06-22T23:00:26.307Z,10.87
2018-06-22T23:02:54.274Z,10.82
2018-06-22T23:05:21.955Z,10.79
2018-06-22T23:07:49.638Z,10.89
2018-06-22T23:10:17.371Z,10.70
2018-06-22T23:12:45.073Z,10.71
2018-06-22T23:15:12.821Z,10.59
2018-06-22T23:17:40.529Z,10.53
2018-06-22T23:20:08.255Z,10.67
2018-06-22T23:22:41.446Z,10.44
2018-06-22T23:25:09.190Z,10.35
2018-06-22T23:27:36.884Z,10.23
2018-06-22T23:30:04.587Z,10.12
2018-06-22T23:32:32.273Z,10.02
2018-06-22T23:35:00.089Z,10.34
2018-06-22T23:37:27.772Z,10.18
2018-06-22T23:39:55.732Z,10.28
2018-06-22T23:42:23.422Z,10.32
2018-06-22T23:44:51.094Z,10.09
2018-06-22T23:47:19.130Z,9.85
2018-06-22T23:49:46.837Z,9.74
2018-06-22T23:52:14.543Z,9.75
2018-06-22T23:54:42.210Z,9.82
2018-06-22T23:57:09.935Z,9.74
2018-06-22T23:59:37.582Z,9.75
